Time;durP1;ratioP1;P1;durP2;ratioP2;P2;SDS_P1;SDS_P2;PMS_P1;PMS_P2;Temp;Humidity;BMP_temperature;BMP_pressure;BME280_temperature;BME280_humidity;BME280_pressure;Samples;Min_cycle;Max_cycle;Signal;HPM_P1;HPM_P2
2023/08/25 00:01:11;;;;;;;12.07;10.00;;;;;;;22.98;87.67;99658.84;10343965;28;20226;-47
2023/08/25 00:06:12;;;;;;;11.98;10.82;;;;;;;22.97;86.92;99664.47;10343225;28;20148;-48
2023/08/25 00:11:13;;;;;;;12.02;10.85;;;;;;;22.95;87.29;99675.56;10345024;28;20076;-50
2023/08/25 00:16:15;;;;;;;11.63;10.55;;;;;;;22.90;87.52;99672.69;10346371;28;20132;-49
2023/08/25 00:21:17;;;;;;;14.13;12.82;;;;;;;22.84;87.59;99671.66;10344756;28;20713;-48
2023/08/25 00:26:18;;;;;;;14.02;12.68;;;;;;;22.78;88.23;99667.94;10334583;28;20141;-48
2023/08/25 00:31:19;;;;;;;13.27;12.10;;;;;;;22.76;88.35;99671.94;10347484;28;21101;-49
2023/08/25 00:36:21;;;;;;;12.48;10.55;;;;;;;22.77;88.57;99663.59;10344806;28;20060;-48
2023/08/25 00:41:23;;;;;;;12.70;11.50;;;;;;;22.78;88.30;99656.25;10350309;28;20100;-49
2023/08/25 00:46:24;;;;;;;16.08;11.95;;;;;;;;;;10316041;28;20053;-49
2023/08/25 00:51:26;;;;;;;11.80;10.63;;;;;;;22.68;88.68;99634.22;10346461;28;20144;-48
2023/08/25 00:56:28;;;;;;;14.02;12.52;;;;;;;22.64;89.50;99632.97;10344106;28;20167;-48
2023/08/25 01:01:30;;;;;;;15.32;13.60;;;;;;;22.58;89.72;99637.41;10332025;28;20123;-54
2023/08/25 01:06:32;;;;;;;12.93;11.70;;;;;;;22.53;89.82;99629.94;10332385;28;20136;-49
2023/08/25 01:11:57;;;;;;;13.25;11.43;;;;;;;22.51;90.43;99653.69;10344510;28;20049;-49
2023/08/25 01:17:09;;;;;;;14.70;12.30;;;;;;;22.33;90.03;99629.19;10333595;28;20042;-48
2023/08/25 01:22:14;;;;;;;12.63;10.88;;;;;;;22.45;91.07;99641.00;10341475;28;20050;-49
2023/08/25 01:27:16;;;;;;;12.40;10.98;;;;;;;22.42;90.73;99649.56;10346550;28;20045;-49
2023/08/25 01:32:19;;;;;;;15.88;11.88;;;;;;;22.34;90.44;99652.53;10317536;28;20053;-49
2023/08/25 01:37:29;;;;;;;14.35;12.20;;;;;;;22.30;90.91;99657.53;10341759;28;20053;-49
2023/08/25 01:42:33;;;;;;;13.55;12.15;;;;;;;22.27;90.91;99646.28;10327518;28;20257;-48
2023/08/25 01:47:34;;;;;;;;;;;;;;;22.24;91.74;99625.84;10311008;28;20109;-48
2023/08/25 01:52:36;;;;;;;16.85;15.38;;;;;;;22.25;91.08;99617.50;10343713;28;19933;-50
2023/08/25 01:57:37;;;;;;;20.33;18.52;;;;;;;22.20;91.56;99608.34;10340813;28;20118;-48
2023/08/25 02:02:39;;;;;;;24.15;21.85;;;;;;;22.07;91.93;99614.69;10343601;28;20065;-49
2023/08/25 02:07:40;;;;;;;22.88;20.77;;;;;;;21.84;94.34;99585.34;10345090;28;20054;-49
2023/08/25 02:12:41;;;;;;;25.40;22.92;;;;;;;21.96;95.14;99623.47;10342709;28;20133;-48
2023/08/25 02:17:43;;;;;;;25.83;23.23;;;;;;;21.91;96.33;99620.56;10340467;28;20061;-48
2023/08/25 02:22:44;;;;;;;27.90;25.20;;;;;;;21.91;96.63;99642.25;10339171;28;20058;-52
2023/08/25 02:27:46;;;;;;;26.67;23.95;;;;;;;21.88;96.82;99633.47;10328201;28;20971;-49
2023/08/25 02:32:47;;;;;;;23.80;21.63;;;;;;;21.87;97.37;99621.00;10343846;28;20508;-50
2023/08/25 02:38:06;;;;;;;24.38;22.17;;;;;;;21.91;97.21;99612.44;10341105;28;20049;-49
2023/08/25 02:43:08;;;;;;;24.55;22.25;;;;;;;21.91;97.52;99601.59;10341609;28;20049;-49
2023/08/25 02:48:09;;;;;;;25.35;23.02;;;;;;;21.88;97.95;99587.41;10344747;28;20044;-49
2023/08/25 02:53:12;;;;;;;24.70;22.40;;;;;;;21.86;97.91;99581.41;10332232;28;20672;-49
2023/08/25 02:58:13;;;;;;;25.77;23.33;;;;;;;21.81;98.67;99575.81;10350368;28;20050;-49
2023/08/25 03:03:14;;;;;;;24.40;22.10;;;;;;;21.86;98.52;99567.03;10348950;28;20053;-48
2023/08/25 03:08:18;;;;;;;24.85;22.45;;;;;;;21.92;98.17;99570.72;10349093;28;20045;-50
2023/08/25 03:13:20;;;;;;;28.48;25.70;;;;;;;21.93;98.79;99554.25;10346965;28;20101;-49
2023/08/25 03:18:28;;;;;;;23.10;20.92;;;;;;;21.98;99.06;99540.06;10347912;28;20053;-50
2023/08/25 03:23:29;;;;;;;24.02;21.73;;;;;;;22.02;98.47;99538.59;10348162;28;20140;-48
2023/08/25 03:28:31;;;;;;;22.60;20.38;;;;;;;22.06;99.03;99537.13;10338254;28;20134;-49
2023/08/25 03:33:32;;;;;;;23.10;21.02;;;;;;;22.10;98.37;99532.09;10347596;28;24942;-49
2023/08/25 03:38:34;;;;;;;19.38;17.55;;;;;;;22.14;98.76;99531.44;10336475;28;20055;-50
2023/08/25 03:43:36;;;;;;;21.67;19.58;;;;;;;22.14;98.78;99528.72;10338729;28;20077;-50
2023/08/25 03:48:38;;;;;;;20.30;18.30;;;;;;;22.19;99.19;99531.63;10331119;28;20593;-49
2023/08/25 03:53:40;;;;;;;18.73;17.13;;;;;;;22.20;98.27;99517.03;10340119;28;20051;-48
2023/08/25 03:58:42;;;;;;;18.05;16.50;;;;;;;22.22;97.53;99495.16;10350242;28;20414;-49
2023/08/25 04:03:44;;;;;;;21.20;19.20;;;;;;;22.23;97.41;99488.66;10346153;28;20063;-49
2023/08/25 04:08:45;;;;;;;17.30;15.80;;;;;;;22.24;98.41;99490.31;10348111;28;20049;-49
2023/08/25 04:13:47;;;;;;;19.20;17.48;;;;;;;22.22;98.11;99477.00;10335430;28;20182;-50
2023/08/25 04:18:48;;;;;;;19.45;17.75;;;;;;;22.19;98.65;99485.56;10348942;28;20057;-50
2023/08/25 04:23:50;;;;;;;17.10;15.50;;;;;;;22.28;98.20;99490.69;10348463;28;20108;-49
2023/08/25 04:28:51;;;;;;;18.20;16.67;;;;;;;22.31;97.19;99490.25;10348976;28;20049;-49
2023/08/25 04:33:53;;;;;;;16.90;15.35;;;;;;;22.36;96.95;99485.06;10344695;28;20099;-52
2023/08/25 04:38:54;;;;;;;18.48;16.95;;;;;;;22.37;96.99;99503.81;10351815;28;20081;-49
2023/08/25 04:43:56;;;;;;;21.75;19.88;;;;;;;22.38;97.56;99512.78;10332149;28;20050;-50
2023/08/25 04:48:57;;;;;;;19.75;17.95;;;;;;;22.37;98.14;99520.09;10336298;28;20069;-50
2023/08/25 04:53:59;;;;;;;20.63;18.77;;;;;;;22.37;98.28;99554.50;10326157;28;20771;-50
2023/08/25 04:59:00;;;;;;;27.55;24.90;;;;;;;22.30;100.00;99583.50;10348606;28;20052;-51
2023/08/25 05:04:03;;;;;;;29.70;26.80;;;;;;;22.12;100.00;99552.53;10333718;28;20049;-49
2023/08/25 05:09:04;;;;;;;29.80;26.77;;;;;;;22.11;100.00;99474.97;10334786;28;20049;-55
2023/08/25 05:14:07;;;;;;;28.13;25.38;;;;;;;22.07;100.00;99503.56;10334740;28;20742;-52
2023/08/25 05:19:11;;;;;;;26.77;24.00;;;;;;;22.10;100.00;99488.72;10338806;28;20053;-55
2023/08/25 05:24:20;;;;;;;26.70;24.10;;;;;;;22.08;100.00;99516.06;10334754;28;20102;-53
2023/08/25 05:29:26;;;;;;;25.17;22.73;;;;;;;21.99;100.00;99506.50;10338182;28;20064;-53
2023/08/25 05:34:28;;;;;;;22.77;20.48;;;;;;;22.02;100.00;99516.91;10338399;28;20046;-52
2023/08/25 05:39:29;;;;;;;19.98;18.13;;;;;;;21.99;100.00;99526.34;10330832;28;20057;-52
2023/08/25 05:44:31;;;;;;;20.35;18.45;;;;;;;21.96;100.00;99532.16;10336797;28;20057;-53
2023/08/25 05:49:32;;;;;;;19.38;17.48;;;;;;;21.92;100.00;99565.31;10339844;28;21624;-53
2023/08/25 05:54:34;;;;;;;16.42;14.80;;;;;;;21.93;100.00;99565.09;10335784;28;20192;-54
2023/08/25 05:59:35;;;;;;;17.63;15.93;;;;;;;21.95;100.00;99563.03;10336117;28;20136;-48
2023/08/25 06:04:37;;;;;;;18.00;16.23;;;;;;;21.91;100.00;99594.28;10331959;28;20160;-47
2023/08/25 06:09:38;;;;;;;17.42;15.75;;;;;;;21.83;100.00;99599.97;10327188;28;20521;-46
2023/08/25 06:14:39;;;;;;;18.13;16.55;;;;;;;21.81;100.00;99589.34;10329167;28;20236;-47
2023/08/25 06:19:43;;;;;;;21.23;19.38;;;;;;;21.87;100.00;99582.22;10337937;28;20053;-46
2023/08/25 06:24:44;;;;;;;18.33;16.42;;;;;;;21.85;100.00;99568.06;10332017;28;20057;-47
2023/08/25 06:29:46;;;;;;;18.55;16.50;;;;;;;21.85;100.00;99563.47;10345492;28;20057;-46
2023/08/25 06:34:51;;;;;;;17.15;15.40;;;;;;;21.92;100.00;99578.88;10322525;28;20073;-47
2023/08/25 06:39:52;;;;;;;16.83;15.13;;;;;;;21.83;100.00;99581.81;10341479;28;20065;-47
2023/08/25 06:44:54;;;;;;;19.88;17.88;;;;;;;21.85;100.00;99574.31;10345323;28;20084;-46
2023/08/25 06:49:56;;;;;;;18.85;17.02;;;;;;;21.87;100.00;99587.63;10338289;28;20501;-56
2023/08/25 06:55:00;;;;;;;16.23;14.63;;;;;;;21.91;100.00;99560.97;10328341;28;20050;-55
2023/08/25 07:00:03;;;;;;;19.10;17.27;;;;;;;21.93;100.00;99542.59;10327317;28;20080;-51
2023/08/25 07:05:05;;;;;;;18.60;16.73;;;;;;;21.81;100.00;99524.34;10336776;28;20060;-49
2023/08/25 07:10:07;;;;;;;19.90;18.03;;;;;;;21.87;100.00;99555.97;10323132;28;20065;-50
2023/08/25 07:15:10;;;;;;;17.17;15.50;;;;;;;21.91;100.00;99556.38;10339949;28;20555;-51
2023/08/25 07:20:11;;;;;;;17.30;15.53;;;;;;;21.95;100.00;99552.19;10334621;28;20053;-51
2023/08/25 07:25:13;;;;;;;14.60;13.40;;;;;;;21.82;100.00;99514.31;10339338;28;20090;-50
2023/08/25 07:30:15;;;;;;;16.60;15.00;;;;;;;22.00;100.00;99543.41;10339305;28;20073;-52
2023/08/25 07:35:16;;;;;;;16.52;15.10;;;;;;;21.93;100.00;99588.66;10339333;28;20079;-51
2023/08/25 07:40:19;;;;;;;14.85;13.55;;;;;;;21.94;100.00;99569.47;10322290;28;20079;-52
2023/08/25 07:45:20;;;;;;;14.10;12.90;;;;;;;21.96;100.00;99580.09;10326025;28;20058;-51
2023/08/25 07:50:22;;;;;;;12.60;11.50;;;;;;;22.06;100.00;99581.31;10320902;28;20108;-51
2023/08/25 07:55:25;;;;;;;11.38;10.38;;;;;;;22.17;100.00;99571.69;10318683;28;20681;-51
2023/08/25 08:00:27;;;;;;;10.65;9.55;;;;;;;22.24;100.00;99564.34;10313692;28;25634;-50
2023/08/25 08:05:29;;;;;;;10.57;9.48;;;;;;;22.27;100.00;99567.69;10304745;28;20064;-50
2023/08/25 08:10:31;;;;;;;9.68;8.85;;;;;;;22.27;99.62;99548.69;10334220;28;20064;-54
2023/08/25 08:15:33;;;;;;;8.75;7.95;;;;;;;22.44;98.81;99560.69;10333319;28;20659;-54
2023/08/25 08:20:34;;;;;;;7.57;6.95;;;;;;;22.69;98.48;99568.06;10327910;28;20053;-54
2023/08/25 08:25:36;;;;;;;7.95;7.00;;;;;;;22.91;95.35;99566.63;10328134;28;20083;-54
2023/08/25 08:30:38;;;;;;;6.70;5.80;;;;;;;23.04;92.71;99571.09;10310256;28;20199;-55
2023/08/25 08:35:40;;;;;;;8.80;6.10;;;;;;;23.00;91.28;99569.06;10330032;28;20166;-54
2023/08/25 08:40:41;;;;;;;7.25;5.07;;;;;;;23.27;91.47;99575.13;10329991;28;20165;-51
2023/08/25 08:45:44;;;;;;;8.38;5.28;;;;;;;23.48;89.66;99577.41;10337299;28;20111;-50
2023/08/25 08:50:46;;;;;;;3.97;3.55;;;;;;;23.61;86.37;99581.03;10333613;28;21330;-50
2023/08/25 08:55:51;;;;;;;4.65;3.22;;;;;;;23.65;86.04;99595.84;10304041;28;20691;-54
2023/08/25 09:00:52;;;;;;;3.75;2.88;;;;;;;23.56;84.93;99573.56;10335202;28;20045;-50
2023/08/25 09:05:57;;;;;;;5.80;3.38;;;;;;;23.54;84.68;99600.16;10316662;28;20682;-50
2023/08/25 09:11:01;;;;;;;5.35;3.85;;;;;;;23.71;86.02;99613.97;10315438;28;21565;-50
2023/08/25 09:16:12;;;;;;;4.00;3.10;;;;;;;23.64;84.64;99638.50;10333487;28;20061;-51
2023/08/25 09:21:23;;;;;;;3.97;2.88;;;;;;;23.54;86.45;99632.75;10326483;28;20151;-50
2023/08/25 09:26:34;;;;;;;4.75;3.92;;;;;;;23.57;85.42;99618.72;10331236;28;20045;-50
2023/08/25 09:31:36;;;;;;;5.05;2.80;;;;;;;23.73;84.17;99611.00;10309665;28;20736;-50
2023/08/25 09:36:51;;;;;;;5.63;3.22;;;;;;;23.69;84.30;99617.94;10332149;28;20053;-52
2023/08/25 09:41:53;;;;;;;3.72;2.63;;;;;;;23.72;83.89;99603.91;10319557;28;20057;-52
2023/08/25 09:46:56;;;;;;;4.38;3.22;;;;;;;23.76;83.97;99584.22;10329036;28;20056;-53
2023/08/25 09:51:59;;;;;;;4.20;3.35;;;;;;;23.91;82.79;99573.00;10335138;28;20053;-54
2023/08/25 09:57:00;;;;;;;4.22;2.95;;;;;;;23.98;82.82;99553.91;10319623;28;20060;-54
2023/08/25 10:02:02;;;;;;;4.30;3.20;;;;;;;24.21;82.33;99536.84;10336085;28;20054;-54
2023/08/25 10:07:05;;;;;;;4.50;3.63;;;;;;;24.33;82.00;99517.84;10336453;28;20056;-56
2023/08/25 10:12:09;;;;;;;3.97;3.00;;;;;;;24.47;80.20;99518.47;10315793;28;20649;-54
2023/08/25 10:17:14;;;;;;;4.15;3.13;;;;;;;24.64;79.97;99496.94;10321839;28;20084;-55
2023/08/25 10:22:17;;;;;;;4.63;3.00;;;;;;;24.77;80.46;99496.69;10330678;28;20060;-54
2023/08/25 10:27:21;;;;;;;4.72;2.58;;;;;;;25.20;77.72;99489.22;10337531;28;20119;-54
2023/08/25 10:32:23;;;;;;;4.55;2.55;;;;;;;25.39;77.32;99496.22;10337797;28;20548;-53
2023/08/25 10:37:26;;;;;;;3.80;2.53;;;;;;;25.34;75.57;99487.94;10322140;28;20053;-52
2023/08/25 10:42:32;;;;;;;5.10;2.77;;;;;;;25.32;76.47;99487.34;10320553;28;20049;-53
2023/08/25 10:47:47;;;;;;;4.55;2.60;;;;;;;25.52;74.82;99475.22;10335185;28;20622;-53
2023/08/25 10:52:52;;;;;;;3.58;2.58;;;;;;;25.52;74.25;99481.53;10337428;28;20929;-53
2023/08/25 10:58:02;;;;;;;3.88;2.00;;;;;;;25.58;74.01;99457.91;10336923;28;20191;-54
2023/08/25 11:03:04;;;;;;;3.30;2.20;;;;;;;25.74;71.83;99456.31;10306995;28;20068;-53
2023/08/25 11:08:24;;;;;;;;;;;;;;;26.31;70.29;99477.31;10326363;28;20088;-52
2023/08/25 11:13:26;;;;;;;3.47;3.00;;;;;;;26.64;68.74;99457.38;10326363;28;19931;-53
2023/08/25 11:18:27;;;;;;;2.40;2.03;;;;;;;26.81;68.80;99473.78;10341358;28;20193;-53
2023/08/25 11:23:43;;;;;;;5.80;2.90;;;;;;;26.81;66.74;99472.94;10320653;28;20528;-53
2023/08/25 11:28:49;;;;;;;3.03;2.33;;;;;;;27.03;66.03;99470.28;10313437;28;20148;-54
2023/08/25 11:33:51;;;;;;;2.38;1.65;;;;;;;26.96;65.61;99483.28;10327965;28;20141;-51
2023/08/25 11:38:53;;;;;;;2.85;1.63;;;;;;;26.95;64.06;99478.91;10338498;28;20049;-50
2023/08/25 11:43:55;;;;;;;3.30;1.75;;;;;;;26.79;63.85;99473.19;10318906;28;20107;-54
2023/08/25 11:48:56;;;;;;;2.73;2.07;;;;;;;26.86;65.21;99483.13;10341790;28;20049;-53
2023/08/25 11:53:58;;;;;;;3.15;2.28;;;;;;;26.87;64.91;99480.13;10336920;28;20168;-53
2023/08/25 11:59:00;;;;;;;3.25;2.25;;;;;;;26.69;65.26;99478.50;10336984;28;20101;-53
2023/08/25 12:04:22;;;;;;;4.82;2.00;;;;;;;26.51;65.88;99492.38;10335701;28;20064;-53
2023/08/25 12:09:25;;;;;;;2.90;1.88;;;;;;;26.53;65.65;99484.75;10333006;28;20049;-51
2023/08/25 12:14:28;;;;;;;2.60;2.03;;;;;;;26.79;65.07;99492.31;10332663;28;20058;-52
2023/08/25 12:19:30;;;;;;;2.75;1.77;;;;;;;26.62;64.56;99494.19;10332344;28;20057;-51
2023/08/25 12:24:31;;;;;;;3.35;1.88;;;;;;;26.51;66.74;99508.75;10333336;28;20597;-53
2023/08/25 12:29:33;;;;;;;2.73;1.90;;;;;;;26.30;66.63;99505.63;10320642;28;20111;-59
2023/08/25 12:34:36;;;;;;;2.83;2.27;;;;;;;26.12;67.35;99509.41;10322320;28;20185;-53
2023/08/25 12:39:37;;;;;;;3.05;2.45;;;;;;;26.06;67.20;99489.41;10308570;28;20068;-53
2023/08/25 12:44:39;;;;;;;2.83;2.10;;;;;;;26.06;67.36;99475.78;10331636;28;20131;-54
2023/08/25 12:49:40;;;;;;;3.08;2.50;;;;;;;26.08;68.01;99502.81;10337405;28;20057;-53
2023/08/25 12:54:42;;;;;;;2.65;2.42;;;;;;;26.06;67.87;99485.84;10306351;28;20061;-53
2023/08/25 12:59:44;;;;;;;4.07;2.97;;;;;;;26.16;67.82;99472.41;10322700;28;20053;-53
2023/08/25 13:04:45;;;;;;;2.72;2.50;;;;;;;26.43;67.40;99467.13;10319249;28;20537;-53
2023/08/25 13:09:47;;;;;;;5.30;1.88;;;;;;;26.54;66.60;99459.13;10329715;28;20057;-54
2023/08/25 13:14:49;;;;;;;3.53;2.00;;;;;;;26.71;66.17;99451.81;10329904;28;20073;-54
2023/08/25 13:19:50;;;;;;;2.67;2.08;;;;;;;26.74;65.60;99478.59;10328096;28;20731;-52
2023/08/25 13:24:52;;;;;;;3.67;2.03;;;;;;;26.74;65.65;99467.69;10326383;28;21402;-54
2023/08/25 13:29:53;;;;;;;2.78;2.25;;;;;;;26.93;64.34;99461.94;10331394;28;20684;-53
2023/08/25 13:34:55;;;;;;;3.63;2.63;;;;;;;27.00;63.44;99457.13;10330298;28;20057;-53
2023/08/25 13:39:56;;;;;;;4.63;2.30;;;;;;;26.86;63.61;99436.72;10319226;28;20064;-53
2023/08/25 13:44:58;;;;;;;4.28;2.67;;;;;;;26.96;64.27;99432.25;10320458;28;20139;-55
2023/08/25 13:49:59;;;;;;;3.50;2.50;;;;;;;27.34;63.08;99414.19;10330890;28;20049;-54
2023/08/25 13:55:01;;;;;;;3.72;2.72;;;;;;;27.49;63.03;99410.81;10334526;28;20050;-53
2023/08/25 14:00:07;;;;;;;3.67;2.63;;;;;;;27.46;61.79;99432.38;10334446;28;20668;-54
2023/08/25 14:05:09;;;;;;;2.92;2.10;;;;;;;27.43;62.85;99449.25;10295580;28;20773;-53
2023/08/25 14:10:11;;;;;;;3.83;3.00;;;;;;;27.19;62.36;99437.72;10333058;28;20060;-53
2023/08/25 14:15:12;;;;;;;4.82;3.30;;;;;;;27.22;62.22;99443.50;10332350;28;20673;-53
2023/08/25 14:20:14;;;;;;;4.95;2.78;;;;;;;27.32;63.48;99440.94;10331492;28;20057;-53
2023/08/25 14:25:15;;;;;;;3.50;2.90;;;;;;;27.47;63.40;99442.19;10331277;28;20152;-54
2023/08/25 14:30:17;;;;;;;5.43;3.63;;;;;;;27.45;62.42;99426.06;10333207;28;20100;-53
2023/08/25 14:35:19;;;;;;;3.92;3.25;;;;;;;27.33;62.63;99439.03;10305625;28;20308;-53
2023/08/25 14:40:20;;;;;;;3.97;2.83;;;;;;;27.24;62.61;99424.94;10330046;28;20187;-54
2023/08/25 14:45:22;;;;;;;4.18;2.58;;;;;;;27.19;63.61;99448.63;10328915;28;20049;-54
2023/08/25 14:50:23;;;;;;;3.80;3.20;;;;;;;27.16;63.63;99434.41;10328239;28;20198;-54
2023/08/25 14:55:25;;;;;;;5.28;3.30;;;;;;;27.21;63.22;99424.63;10324627;28;20798;-53
2023/08/25 15:00:26;;;;;;;3.75;2.95;;;;;;;27.25;63.19;99421.16;10339024;28;20247;-53
2023/08/25 15:05:29;;;;;;;5.75;3.50;;;;;;;27.23;63.38;99406.09;10329061;28;20096;-53
2023/08/25 15:10:30;;;;;;;3.72;2.92;;;;;;;27.32;62.39;99437.34;10340508;28;20130;-54
2023/08/25 15:15:33;;;;;;;5.28;3.05;;;;;;;27.21;62.63;99430.09;10324068;28;20080;-53
2023/08/25 15:20:35;;;;;;;5.50;3.28;;;;;;;27.24;62.48;99429.59;10338185;28;20069;-53
2023/08/25 15:25:36;;;;;;;6.60;3.85;;;;;;;27.13;63.15;99421.25;10336827;28;20580;-53
2023/08/25 15:30:38;;;;;;;5.63;3.42;;;;;;;27.13;62.55;99428.63;10320163;28;20115;-54
2023/08/25 15:35:41;;;;;;;4.68;4.00;;;;;;;27.11;62.84;99419.84;10339668;28;20049;-53
2023/08/25 15:40:42;;;;;;;4.78;4.13;;;;;;;27.11;63.19;99420.69;10336351;28;20076;-53
2023/08/25 15:45:48;;;;;;;5.95;3.78;;;;;;;27.04;63.23;99397.38;10335524;28;20087;-54
2023/08/25 15:50:53;;;;;;;4.53;3.58;;;;;;;27.10;62.84;99405.38;10298686;28;20458;-54
2023/08/25 15:55:55;;;;;;;6.15;3.72;;;;;;;27.11;63.04;99406.19;10338963;28;20766;-54
2023/08/25 16:00:59;;;;;;;8.45;3.55;;;;;;;27.05;62.64;99404.47;10337259;28;20448;-52
2023/08/25 16:06:03;;;;;;;5.10;3.30;;;;;;;26.91;63.24;99393.13;10338928;28;20050;-52
2023/08/25 16:11:07;;;;;;;5.95;4.10;;;;;;;26.83;64.23;99379.88;10338767;28;20060;-53
2023/08/25 16:16:11;;;;;;;11.82;5.30;;;;;;;26.79;63.76;99376.84;10334977;28;22007;-57
2023/08/25 16:21:13;;;;;;;6.53;4.03;;;;;;;26.78;63.94;99375.19;10297620;28;20084;-53
2023/08/25 16:26:14;;;;;;;10.43;4.63;;;;;;;26.72;64.33;99373.47;10331710;28;20280;-53
2023/08/25 16:31:16;;;;;;;6.68;4.00;;;;;;;26.71;64.65;99378.09;10323024;28;20069;-53
2023/08/25 16:36:18;;;;;;;6.88;4.07;;;;;;;26.71;64.82;99360.88;10333666;28;20753;-53
2023/08/25 16:41:19;;;;;;;5.60;3.92;;;;;;;26.65;64.96;99335.41;10317127;28;20144;-57
2023/08/25 16:46:21;;;;;;;7.82;4.20;;;;;;;26.61;65.04;99340.53;10331644;28;20054;-54
2023/08/25 16:51:23;;;;;;;6.30;3.95;;;;;;;26.62;65.60;99347.66;10331342;28;20061;-53
2023/08/25 16:56:24;;;;;;;5.13;3.58;;;;;;;26.65;65.68;99351.78;10328552;28;20258;-53
2023/08/25 17:01:26;;;;;;;5.78;3.78;;;;;;;26.70;67.54;99359.25;10330084;28;20050;-52
2023/08/25 17:06:29;;;;;;;7.65;4.00;;;;;;;26.54;71.58;99371.81;10332616;28;20421;-54
2023/08/25 17:11:31;;;;;;;8.07;4.65;;;;;;;26.48;72.96;99383.72;10329987;28;20118;-53
2023/08/25 17:16:32;;;;;;;6.03;4.37;;;;;;;26.42;73.08;99391.84;10311628;28;20261;-53
2023/08/25 17:21:34;;;;;;;4.65;4.25;;;;;;;26.35;73.21;99409.47;10329703;28;20064;-54
2023/08/25 17:26:35;;;;;;;8.43;4.90;;;;;;;26.08;73.24;99380.09;10322386;28;20111;-54
2023/08/25 17:31:37;;;;;;;9.60;5.75;;;;;;;26.19;74.02;99400.19;10309534;28;20573;-51
2023/08/25 17:36:38;;;;;;;5.00;4.38;;;;;;;26.12;74.81;99397.59;10303605;28;20045;-51
2023/08/25 17:41:41;;;;;;;5.47;4.50;;;;;;;26.02;74.76;99403.72;10329068;28;20049;-53
2023/08/25 17:46:43;;;;;;;5.10;4.70;;;;;;;25.98;74.41;99405.25;10330018;28;20567;-50
2023/08/25 17:51:48;;;;;;;5.07;3.90;;;;;;;25.88;73.94;99407.78;10299730;28;20045;-52
2023/08/25 17:56:49;;;;;;;6.53;3.78;;;;;;;25.76;75.05;99400.50;10329926;28;20736;-51
2023/08/25 18:01:51;;;;;;;6.03;4.38;;;;;;;25.71;75.84;99405.84;10327436;28;20643;-53
2023/08/25 18:06:53;;;;;;;5.28;4.80;;;;;;;25.64;76.41;99397.03;10328999;28;20073;-52
2023/08/25 18:11:54;;;;;;;6.97;4.57;;;;;;;25.58;76.44;99408.88;10331241;28;20192;-52
2023/08/25 18:16:55;;;;;;;6.90;4.15;;;;;;;25.53;76.31;99400.59;10326508;28;20049;-52
2023/08/25 18:21:57;;;;;;;5.60;4.35;;;;;;;25.52;75.78;99398.94;10328412;28;20147;-51
2023/08/25 18:26:59;;;;;;;5.50;4.75;;;;;;;25.52;75.41;99396.22;10335060;28;20107;-50
2023/08/25 18:32:00;;;;;;;6.13;4.90;;;;;;;25.50;74.33;99371.13;10320836;28;20049;-52
2023/08/25 18:37:03;;;;;;;;;;;;;;;25.48;73.53;99367.81;10334908;28;20053;-51
2023/08/25 18:42:07;;;;;;;5.38;4.70;;;;;;;25.46;73.41;99384.41;10333747;28;19932;-51
2023/08/25 18:47:09;;;;;;;6.68;6.03;;;;;;;25.44;73.95;99402.88;10315138;28;20665;-51
2023/08/25 18:52:10;;;;;;;7.10;6.15;;;;;;;25.44;74.21;99399.34;10315603;28;20120;-51
2023/08/25 18:57:12;;;;;;;7.72;5.63;;;;;;;25.43;74.66;99394.94;10316638;28;20154;-51
2023/08/25 19:02:13;;;;;;;6.63;5.15;;;;;;;25.37;75.25;99413.94;10336279;28;20716;-52
2023/08/25 19:07:15;;;;;;;6.80;5.28;;;;;;;25.32;75.05;99411.09;10329582;28;20079;-51
2023/08/25 19:12:16;;;;;;;6.57;4.85;;;;;;;25.24;74.25;99404.09;10335298;28;20122;-50
2023/08/25 19:17:17;;;;;;;7.20;5.60;;;;;;;25.29;74.64;99421.63;10311016;28;20053;-51
2023/08/25 19:22:19;;;;;;;5.53;4.55;;;;;;;25.26;74.34;99420.19;10301516;28;20634;-50
2023/08/25 19:27:20;;;;;;;7.03;5.43;;;;;;;25.26;73.74;99422.91;10321971;28;20060;-51
2023/08/25 19:32:22;;;;;;;8.15;5.13;;;;;;;25.24;73.18;99430.50;10333351;28;20156;-50
2023/08/25 19:37:24;;;;;;;6.38;4.63;;;;;;;25.23;73.18;99434.28;10338089;28;20053;-51
2023/08/25 19:42:27;;;;;;;5.40;3.80;;;;;;;25.21;73.01;99431.00;10323686;28;20140;-51
2023/08/25 19:47:29;;;;;;;5.90;5.22;;;;;;;25.21;72.71;99437.25;10334839;28;20096;-51
2023/08/25 19:52:30;;;;;;;7.07;5.15;;;;;;;25.19;72.76;99435.81;10304678;28;20049;-51
2023/08/25 19:57:32;;;;;;;5.00;3.70;;;;;;;25.20;72.66;99434.78;10319864;28;20056;-51
2023/08/25 20:02:34;;;;;;;6.97;4.40;;;;;;;25.21;73.29;99436.44;10334274;28;20207;-51
2023/08/25 20:07:36;;;;;;;6.87;4.90;;;;;;;25.19;73.91;99449.44;10333187;28;20058;-52
2023/08/25 20:12:37;;;;;;;5.60;5.10;;;;;;;25.15;74.07;99448.28;10338723;28;21211;-50
2023/08/25 20:17:38;;;;;;;7.28;5.28;;;;;;;25.16;74.32;99422.69;10325026;28;20053;-51
2023/08/25 20:22:40;;;;;;;7.35;6.65;;;;;;;25.16;74.42;99428.13;10334256;28;20061;-50
2023/08/25 20:27:41;;;;;;;5.60;5.00;;;;;;;25.18;74.55;99421.41;10335730;28;20187;-52
2023/08/25 20:32:43;;;;;;;6.85;5.20;;;;;;;25.18;74.33;99418.66;10320109;28;20080;-50
2023/08/25 20:37:44;;;;;;;5.97;5.28;;;;;;;25.20;75.01;99448.38;10321543;28;20085;-50
2023/08/25 20:42:49;;;;;;;7.00;5.32;;;;;;;25.17;74.82;99437.97;10335328;28;20062;-50
2023/08/25 20:47:51;;;;;;;11.32;6.18;;;;;;;25.14;75.26;99441.19;10339556;28;20759;-50
2023/08/25 20:52:52;;;;;;;8.65;6.20;;;;;;;25.08;75.63;99413.00;10338094;28;20053;-50
2023/08/25 20:57:55;;;;;;;6.73;5.07;;;;;;;25.05;76.09;99421.66;10337166;28;20060;-50
2023/08/25 21:02:56;;;;;;;6.68;5.57;;;;;;;25.06;76.48;99421.41;10339858;28;20505;-51
2023/08/25 21:07:58;;;;;;;6.60;5.38;;;;;;;25.06;75.89;99410.53;10334933;28;20107;-50
2023/08/25 21:12:59;;;;;;;8.75;5.55;;;;;;;25.05;76.27;99400.69;10318170;28;20049;-50
2023/08/25 21:18:01;;;;;;;6.55;5.85;;;;;;;25.04;77.02;99406.38;10322293;28;20053;-49
2023/08/25 21:23:02;;;;;;;6.05;5.20;;;;;;;24.98;77.60;99416.34;10337354;28;20075;-50
2023/08/25 21:28:04;;;;;;;8.45;5.43;;;;;;;24.85;79.34;99395.63;10304474;28;20077;-50
2023/08/25 21:33:06;;;;;;;9.07;4.93;;;;;;;24.80;78.97;99391.97;10330909;28;20064;-50
2023/08/25 21:38:07;;;;;;;7.63;5.05;;;;;;;24.81;79.55;99409.97;10333752;28;20042;-51
2023/08/25 21:43:12;;;;;;;9.68;6.05;;;;;;;24.74;85.79;99508.06;10330670;28;20534;-50
2023/08/25 21:48:14;;;;;;;16.77;9.07;;;;;;;24.33;93.57;99464.28;10311065;28;20425;-53
2023/08/25 21:53:15;;;;;;;8.25;5.60;;;;;;;24.14;96.13;99470.84;10325858;28;20057;-52
2023/08/25 21:58:17;;;;;;;5.82;5.22;;;;;;;24.07;94.47;99464.72;10345270;28;20232;-57
2023/08/25 22:03:19;;;;;;;5.78;5.25;;;;;;;24.03;95.69;99458.91;10352890;28;20053;-53
2023/08/25 22:08:21;;;;;;;5.75;4.97;;;;;;;24.00;96.17;99435.75;10350700;28;20050;-51
2023/08/25 22:13:22;;;;;;;5.60;5.10;;;;;;;23.97;97.50;99428.03;10351304;28;20053;-51
2023/08/25 22:18:25;;;;;;;6.93;5.80;;;;;;;23.99;94.98;99444.13;10352624;28;20077;-52
2023/08/25 22:23:26;;;;;;;6.20;5.32;;;;;;;23.92;94.51;99446.94;10336950;28;21341;-52
2023/08/25 22:28:28;;;;;;;6.03;5.43;;;;;;;23.90;95.66;99413.72;10351772;28;20191;-53
2023/08/25 22:33:29;;;;;;;7.55;5.40;;;;;;;23.94;97.76;99406.75;10331069;28;20790;-52
2023/08/25 22:38:34;;;;;;;7.85;6.18;;;;;;;23.92;96.78;99408.88;10341927;28;20045;-53
2023/08/25 22:43:35;;;;;;;6.45;5.47;;;;;;;23.84;97.51;99376.59;10339392;28;20090;-52
2023/08/25 22:48:37;;;;;;;8.32;5.93;;;;;;;23.89;97.68;99381.34;10349492;28;20061;-52
2023/08/25 22:53:39;;;;;;;7.30;6.53;;;;;;;23.89;98.63;99420.22;10349638;28;20061;-51
2023/08/25 22:58:40;;;;;;;8.67;7.00;;;;;;;23.82;97.25;99457.50;10346754;28;20053;-51
2023/08/25 23:03:42;;;;;;;7.97;6.97;;;;;;;23.70;98.21;99443.03;10334124;28;20049;-52
2023/08/25 23:08:43;;;;;;;8.23;6.13;;;;;;;23.49;98.22;99453.31;10339656;28;20049;-52
2023/08/25 23:13:45;;;;;;;7.03;5.65;;;;;;;23.19;98.10;99475.78;10350740;28;20054;-52